EKSB/SGD METAR and TAF weather

Enter ICAO airport designator
Station Type Date Time Source
EKSB METAR 2020/01/18 21:50 UTC NOAA

EKSB 182150Z AUTO 25007KT 220V280 9999NDV NCD 04/02 Q1021


Station Type Date Time Source
EKSB Decoded METAR 2020/01/18 21:50 UTC NOAA

Soenderborg Lufthavn, Denmark (EKSB) 54-58N 009-47E 14M
Jan 18, 2020 - 04:50 PM EST / 2020.01.18 2150 UTC
Wind: from the WSW (250 degrees) at 8 MPH (7 KT) (direction variable):0
Temperature: 39 F (4 C)
Dew Point: 35 F (2 C)
Relative Humidity: 86%
Pressure (altimeter): 30.15 in. Hg (1021 hPa)
ob: EKSB 182150Z AUTO 25007KT 220V280 9999NDV NCD 04/02 Q1021
cycle: 22

Station Type Date Time Source
EKSB TAF 2016/01/27 09:03 UTC NOAA

TAF TAF EKSB 270856Z 2709/2721 23022KT 5000 -RA BR BKN008
TEMPO 2709/2721 24025G40KT 2000 RADZ BKN004

Example: see airport list